Flight Track Log - Related Links

Times and Time Zones

All times are in EDT time to prevent confusion due to time zone crossing. See the AWE1286 flight status page for this flight to view local times or setup timezone preferences in your user account.

Time Position Orientation Groundspeed Altitude Reporting Facility
EDT Latitude Longitude Course Direction KTS MPH feet Rate Location/Type
Thu 09:46:47 39.8667 -75.2167 104° East 129 148 900  Level Philadelphia TRACON
Thu 09:47:53 39.8500 -75.1500 108° East 212 244 2,900 2,387 Climbing Philadelphia TRACON
Thu 09:49:00 39.5124 -75.3142 189° South  Level FlightAware Approximate
Thu 09:49:48 39.7625 -75.1244 167° South 221 254 8,100  Level Washington Center
Thu 09:50:00 39.3893 -75.3382 185° South  Level FlightAware Approximate
Thu 09:50:48 39.7025 -75.1708 211° Southwest 244 281 9,800  Level Washington Center
Thu 09:51:00 39.2659 -75.3587 201° Southwest  Level FlightAware Approximate
Thu 09:51:46 39.6297 -75.2306 212° Southwest 282 325 12,100  Level Washington Center
Thu 09:52:00 39.1888 -75.2937 104° East  Level FlightAware Approximate
Thu 09:52:46 39.5444 -75.2981 211° Southwest 331 381 13,100  Level Washington Center
Thu 09:53:46 39.4342 -75.3444 198° South 398 458 14,800 1,770 Climbing Washington Center
Thu 09:54:48 39.3153 -75.3636 187° South 411 473 16,700 1,082 Climbing Washington Center
Thu 09:55:48 39.2069 -75.3236 164° South 418 481 17,000 454 Climbing Washington Center
Thu 09:56:47 39.1669 -75.1847 110° East 345 397 17,600 655 Climbing Washington Center
Thu 09:57:47 39.1247 -75.0458 111° Southeast 369 425 18,300 1,271 Climbing Washington Center
Thu 09:58:45 39.0739 -74.9072 115° Southeast 402 463 20,100 1,664 Climbing Washington Center
Thu 09:59:46 39.0228 -74.7633 115° Southeast 425 489 21,600 1,190 Climbing Washington Center
Thu 10:00:46 38.9697 -74.6225 116° Southeast 437 503 22,500 1,339 Climbing Washington Center
Thu 10:01:47 38.9119 -74.4553 114° Southeast 451 519 24,300 1,188 Climbing Washington Center
Thu 10:03:58 38.7767 -74.1531 120° Southeast 466 536 26,300 1,000 Climbing New York Center
Thu 10:04:59 38.7036 -74.0111 123° Southeast 477 549 27,500 1,339 Climbing New York Center
Thu 10:05:59 38.6322 -73.8672 122° Southeast 482 555 29,000 1,400 Climbing New York Center
Thu 10:06:59 38.5631 -73.7261 122° Southeast 476 548 30,300 1,462 Climbing New York Center
Thu 10:07:58 38.4911 -73.5931 125° Southeast 471 542 31,900 1,361 Climbing New York Center
Thu 10:08:58 38.4214 -73.4606 124° Southeast 464 534 33,000 1,850 Climbing New York Center
Thu 10:09:58 38.3553 -73.3361 124° Southeast 447 514 35,600 1,613 Climbing New York Center
Thu 10:10:57 38.2933 -73.2094 122° Southeast 433 498 36,200 454 Climbing New York Center
Thu 10:11:57 38.2314 -73.0753 120° Southeast 426 490 36,500 347 Climbing New York Center
Thu 10:12:58 38.1544 -72.9592 130° Southeast 431 496 36,900 248 Climbing New York Center
Thu 10:13:58 38.0775 -72.8331 128° Southeast 443 510 37,000 50 Climbing New York Center
Thu 10:14:59 37.9903 -72.6881 127° Southeast 455 524 37,000  Level New York Center
Thu 10:15:57 37.9111 -72.5572 127° Southeast 462 532 37,000  Level New York Center
Thu 10:16:57 37.8378 -72.4369 128° Southeast 471 542 37,000  Level New York Center
Thu 10:17:57 37.7522 -72.2906 126° Southeast 471 542 37,000  Level New York Center
Thu 10:18:57 37.6683 -72.1681 131° Southeast 471 542 37,000  Level New York Center
Thu 10:19:57 37.6011 -72.0278 121° Southeast 420 483 37,000 -50 Level New York Center
Thu 10:20:57 37.5233 -71.8956 127° Southeast 461 531 36,900  Descending New York Center
Thu 10:21:59 37.4283 -71.7711 134° Southeast 466 536 37,000 50 Climbing New York Center
Thu 10:22:57 37.3017 -71.7014 156° South 483 556 37,000  Level New York Center
Thu 10:23:46 37.4000 -71.7000 176° South 527 606 37,000  Level New York Oceanic (ODAPS)
Thu 10:23:57 37.1581 -71.6814 174° South 489 563 37,000  Level New York Center
Thu 10:31:00 36.0750 -71.5743 176° South 527 606 37,000  Level FlightAware Transoceanic
Thu 10:32:00 35.9278 -71.5606 176° South 527 606 37,000  Level FlightAware Transoceanic
Thu 10:33:00 35.7806 -71.5469 176° South 527 606 37,000  Level FlightAware Transoceanic
Thu 10:34:00 35.6333 -71.5333 168° South 527 606 37,000  Level FlightAware Transoceanic
Thu 10:35:00 35.4921 -71.4970 168° South 527 606 37,000  Level FlightAware Transoceanic
Thu 10:36:00 35.3508 -71.4608 168° South 527 606 37,000  Level FlightAware Transoceanic
Thu 10:37:00 35.2095 -71.4248 168° South 527 606 37,000  Level FlightAware Transoceanic
Thu 10:38:00 35.0682 -71.3888 168° South 527 606 37,000  Level FlightAware Transoceanic
Thu 10:39:00 34.9269 -71.3530 168° South 527 606 37,000  Level FlightAware Transoceanic
Thu 10:40:00 34.7856 -71.3173 168° South 527 606 37,000  Level FlightAware Transoceanic
Thu 10:41:00 34.6443 -71.2818 168° South 527 606 37,000  Level FlightAware Transoceanic
Thu 10:42:00 34.5029 -71.2463 168° South 527 606 37,000  Level FlightAware Transoceanic
Thu 10:43:00 34.3616 -71.2110 168° South 527 606 37,000  Level FlightAware Transoceanic
Thu 10:44:00 34.2202 -71.1758 168° South 527 606 37,000  Level FlightAware Transoceanic
Thu 10:45:00 34.0788 -71.1407 168° South 527 606 37,000  Level FlightAware Transoceanic
Thu 10:46:00 33.9375 -71.1057 168° South 527 606 37,000  Level FlightAware Transoceanic
Thu 10:47:00 33.7961 -71.0709 168° South 527 606 37,000  Level FlightAware Transoceanic
Thu 10:48:00 33.6547 -71.0361 168° South 527 606 37,000  Level FlightAware Transoceanic
Thu 10:49:00 33.5133 -71.0015 168° South 527 606 37,000  Level FlightAware Transoceanic
Thu 10:50:00 33.3718 -70.9670 168° South 527 606 37,000  Level FlightAware Transoceanic
Thu 10:51:00 33.2304 -70.9326 169° South 527 606 37,000  Level FlightAware Transoceanic
Thu 10:52:00 33.0890 -70.8983 169° South 527 606 37,000  Level FlightAware Transoceanic
Thu 10:53:00 32.9475 -70.8641 169° South 527 606 37,000  Level FlightAware Transoceanic
Thu 10:54:00 32.8061 -70.8300 169° South 527 606 37,000  Level FlightAware Transoceanic
Thu 10:55:00 32.6646 -70.7961 169° South 527 606 37,000  Level FlightAware Transoceanic
Thu 10:56:00 32.5232 -70.7622 169° South 527 606 37,000  Level FlightAware Transoceanic
Thu 10:57:00 32.3817 -70.7285 169° South 527 606 37,000  Level FlightAware Transoceanic
Thu 10:58:00 32.2402 -70.6948 169° South 527 606 37,000  Level FlightAware Transoceanic
Thu 10:59:00 32.0987 -70.6613 169° South 527 606 37,000  Level FlightAware Transoceanic
Thu 11:00:00 31.9572 -70.6279 169° South 527 606 37,000  Level FlightAware Transoceanic
Thu 11:01:00 31.8156 -70.5945 169° South 527 606 37,000  Level FlightAware Transoceanic
Thu 11:02:00 31.6741 -70.5613 169° South 527 606 37,000  Level FlightAware Transoceanic
Thu 11:03:00 31.5326 -70.5282 169° South 527 606 37,000  Level FlightAware Transoceanic
Thu 11:04:00 31.3910 -70.4951 169° South 527 606 37,000  Level FlightAware Transoceanic
Thu 11:05:00 31.2495 -70.4622 169° South 527 606 37,000  Level FlightAware Transoceanic
Thu 11:06:00 31.1079 -70.4294 169° South 527 606 37,000  Level FlightAware Transoceanic
Thu 11:07:00 30.9664 -70.3966 169° South 527 606 37,000  Level FlightAware Transoceanic
Thu 11:08:00 30.8248 -70.3640 169° South 527 606 37,000  Level FlightAware Transoceanic
Thu 11:09:00 30.6832 -70.3315 169° South 527 606 37,000  Level FlightAware Transoceanic
Thu 11:10:00 30.5416 -70.2990 169° South 527 606 37,000  Level FlightAware Transoceanic
Thu 11:11:00 30.4179 -70.2643 166° South  Level FlightAware Approximate
Thu 11:12:00 30.2941 -70.2297 166° South  Level FlightAware Approximate
Thu 11:13:00 30.3099 -70.2370 169° South  Level FlightAware Approximate
Thu 11:13:14 30.4000 -70.2667 169° South 496 571 37,000  Level New York Oceanic (ODAPS)
Thu 11:14:00 30.1839 -70.2083 169° South  Level FlightAware Approximate
Thu 11:15:00 30.0578 -70.1795 169° South  Level FlightAware Approximate
Thu 11:16:00 29.9317 -70.1509 169° South  Level FlightAware Approximate
Thu 11:17:00 29.8056 -70.1224 169° South  Level FlightAware Approximate
Thu 11:18:00 29.6796 -70.0939 169° South  Level FlightAware Approximate
Thu 11:19:00 29.4301 -70.0483 169° South 496 571 37,000  Level FlightAware Transoceanic
Thu 11:20:00 29.2915 -70.0174 169° South 496 571 37,000  Level FlightAware Transoceanic
Thu 11:21:00 29.1530 -69.9866 169° South 496 571 37,000  Level FlightAware Transoceanic
Thu 11:22:00 29.0144 -69.9559 169° South 496 571 37,000  Level FlightAware Transoceanic
Thu 11:23:00 28.8757 -69.9253 169° South 496 571 37,000  Level FlightAware Transoceanic
Thu 11:24:00 28.7371 -69.8948 169° South 496 571 37,000  Level FlightAware Transoceanic
Thu 11:25:00 28.5985 -69.8643 169° South 496 571 37,000  Level FlightAware Transoceanic
Thu 11:26:00 28.4599 -69.8340 169° South 496 571 37,000  Level FlightAware Transoceanic
Thu 11:27:00 28.3213 -69.8037 169° South 496 571 37,000  Level FlightAware Transoceanic
Thu 11:28:00 28.1826 -69.7735 169° South 496 571 37,000  Level FlightAware Transoceanic
Thu 11:29:00 28.0440 -69.7434 169° South 496 571 37,000  Level FlightAware Transoceanic
Thu 11:30:00 27.9053 -69.7133 169° South 496 571 37,000  Level FlightAware Transoceanic
Thu 11:31:00 27.7667 -69.6833 169° South 496 571 37,000  Level FlightAware Transoceanic
Thu 11:32:00 27.6350 -69.6549 169° South 496 571 37,000  Level FlightAware Transoceanic
Thu 11:33:00 27.5033 -69.6265 169° South 496 571 37,000  Level FlightAware Transoceanic
Thu 11:34:00 27.3716 -69.5983 169° South 496 571 37,000  Level FlightAware Transoceanic
Thu 11:35:00 27.2399 -69.5700 169° South 496 571 37,000  Level FlightAware Transoceanic
Thu 11:36:00 27.1082 -69.5419 169° South 496 571 37,000  Level FlightAware Transoceanic
Thu 11:37:00 26.9764 -69.5138 169° South 496 571 37,000  Level FlightAware Transoceanic
Thu 11:38:00 26.8447 -69.4857 169° South 496 571 37,000  Level FlightAware Transoceanic
Thu 11:39:00 26.7130 -69.4578 169° South 496 571 37,000  Level FlightAware Transoceanic
Thu 11:40:00 26.5812 -69.4299 169° South 496 571 37,000  Level FlightAware Transoceanic
Thu 11:41:00 26.4495 -69.4021 169° South 496 571 37,000  Level FlightAware Transoceanic
Thu 11:42:00 26.3178 -69.3743 169° South 496 571 37,000  Level FlightAware Transoceanic
Thu 11:42:17 26.7167 -69.4500 170° South 484 557 37,000  Level New York Oceanic (ODAPS)
Thu 11:43:00 26.1860 -69.3466 169° South 496 571 37,000  Level FlightAware Transoceanic
Thu 11:44:00 26.0543 -69.3189 169° South 496 571 37,000  Level FlightAware Transoceanic
Thu 11:45:00 25.9225 -69.2914 169° South 496 571 37,000  Level FlightAware Transoceanic
Thu 11:46:00 25.7907 -69.2638 169° South 496 571 37,000  Level FlightAware Transoceanic
Thu 11:47:00 25.6589 -69.2364 169° South 496 571 37,000  Level FlightAware Transoceanic
Thu 11:48:00 25.5283 -69.2066 170° South 484 557 37,000  Level FlightAware Transoceanic
Thu 11:49:00 25.3962 -69.1799 170° South 484 557 37,000  Level FlightAware Transoceanic
Thu 11:50:00 25.2642 -69.1532 170° South 484 557 37,000  Level FlightAware Transoceanic
Thu 11:51:00 25.1321 -69.1266 170° South 484 557 37,000  Level FlightAware Transoceanic
Thu 11:51:45 25.0794 -69.1497 167° South 463 533 37,000  Level Miami Center
Thu 11:52:00 25.0000 -69.1000 167° South 484 557 37,000  Level FlightAware Transoceanic
Thu 11:52:45 24.9511 -69.1258 170° South 463 533 37,000  Level Miami Center
Thu 11:53:00 24.8641 -69.0662 167° South 484 557 37,000  Level FlightAware Transoceanic
Thu 11:53:45 24.8200 -69.0906 166° South 476 548 37,000  Level Miami Center
Thu 11:54:00 24.7282 -69.0324 167° South 484 557 37,000  Level FlightAware Transoceanic
Thu 11:54:45 24.6867 -69.0581 168° South 489 563 37,000  Level Miami Center
Thu 11:55:00 24.5922 -68.9987 167° South 484 557 37,000  Level FlightAware Transoceanic
Thu 11:55:45 24.5514 -69.0231 167° South 494 568 37,000  Level Miami Center
Thu 11:56:00 24.4563 -68.9651 167° South 484 557 37,000  Level FlightAware Transoceanic
Thu 11:56:45 24.4206 -68.9906 167° South 494 568 37,000  Level Miami Center
Thu 11:57:00 24.3203 -68.9316 167° South 484 557 37,000  Level FlightAware Transoceanic
Thu 11:57:45 24.2828 -68.9514 165° South 494 568 37,000  Level Miami Center
Thu 11:58:45 24.1497 -68.9211 168° South 494 568 37,000  Level Miami Center
Thu 11:59:45 24.0144 -68.8867 167° South 499 574 37,000  Level Miami Center
Thu 12:00:45 23.8814 -68.8519 167° South 489 563 37,000  Level Miami Center
Thu 12:01:45 23.7483 -68.8197 168° South 495 570 37,000  Level Miami Center
Thu 12:02:45 23.6044 -68.7836 167° South 495 570 37,000  Level Miami Center
Thu 12:03:45 23.4714 -68.7514 167° South 490 564 37,000  Level Miami Center
Thu 12:04:45 23.3317 -68.7128 166° South 496 571 37,000  Level Miami Center
Thu 12:05:45 23.2008 -68.6806 167° South 501 577 37,000  Level Miami Center
Thu 12:06:45 23.0592 -68.6467 168° South 501 577 37,000  Level Miami Center
Thu 12:07:45 22.9217 -68.6106 166° South 508 585 37,000  Level Miami Center
Thu 12:08:45 22.7844 -68.5767 167° South 508 585 37,000  Level Miami Center
Thu 12:09:45 22.6469 -68.5406 166° South 513 590 37,000  Level Miami Center
Thu 12:10:45 22.5056 -68.5069 168° South 513 590 37,000  Level Miami Center
Thu 12:11:45 22.3642 -68.4733 168° South 513 590 37,000  Level Miami Center
Thu 12:12:45 22.2247 -68.4397 167° South 513 590 37,000  Level Miami Center
Thu 12:13:45 22.0831 -68.4042 167° South 513 590 37,000 200 Level Miami Center
Thu 12:14:45 21.9417 -68.3706 168° South 519 597 37,400 600 Climbing Miami Center
Thu 12:15:45 21.8022 -68.3350 167° South 519 597 38,200 800 Climbing Miami Center
Thu 12:16:45 21.6628 -68.2994 167° South 514 592 39,000 400 Climbing Miami Center
Thu 12:17:45 21.5278 -68.2681 168° South 504 580 39,000  Level Miami Center
Thu 12:18:45 21.3969 -68.2364 167° South 499 574 39,000  Level Miami Center
Thu 12:19:45 21.2744 -68.2042 166° South 485 558 39,000 -50 Level Miami Center
Thu 12:20:45 21.1322 -68.1578 163° South 490 564 38,900  Descending Miami Center
Thu 12:21:45 21.0303 -68.0469 135° Southeast 497 572 39,000 50 Climbing Miami Center
Thu 12:22:45 20.9300 -67.9317 133° Southeast 508 585 39,000  Level Miami Center
Thu 12:23:45 20.8319 -67.8206 133° Southeast 508 585 39,000  Level Miami Center
Thu 12:24:45 20.7297 -67.7103 135° Southeast 515 593 39,000  Level Miami Center
Thu 12:25:45 20.6336 -67.5972 132° Southeast 515 593 39,000  Level Miami Center
Thu 12:26:47 20.5333 -67.4667 129° Southeast 520 598 39,000 -146 Level San Juan Center
Thu 12:27:48 20.4500 -67.3500 127° Southeast 520 598 38,700 -645 Descending San Juan Center
Thu 12:28:48 20.3333 -67.2500 141° Southeast 520 598 37,700 -1,350 Descending San Juan Center
Thu 12:29:48 20.2333 -67.1333 132° Southeast 540 621 36,000 -1,884 Descending San Juan Center
Thu 12:30:49 20.1333 -67.0167 132° Southeast 530 610 33,900 -1,884 Descending San Juan Center
Thu 12:31:49 20.0333 -66.9000 132° Southeast 520 598 32,200 -1,900 Descending San Juan Center
Thu 12:32:49 19.9333 -66.7833 132° Southeast 520 598 30,100 -2,050 Descending San Juan Center
Thu 12:33:49 19.8500 -66.6833 132° Southeast 510 587 28,100 -1,934 Descending San Juan Center
Thu 12:34:50 19.7500 -66.5667 132° Southeast 500 575 26,200 -2,033 Descending San Juan Center
Thu 12:35:50 19.6500 -66.4667 137° Southeast 510 587 24,000 -2,132 Descending San Juan Center
Thu 12:36:51 19.5500 -66.3500 132° Southeast 490 564 21,900 -1,934 Descending San Juan Center
Thu 12:37:51 19.4667 -66.2500 131° Southeast 470 541 20,100 -1,800 Descending San Juan Center
Thu 12:38:51 19.3833 -66.1500 131° Southeast 460 529 18,300 -1,350 Descending San Juan Center
Thu 12:39:51 19.3000 -66.0500 131° Southeast 440 506 17,400 -992 Descending San Juan Center
Thu 12:40:52 19.2000 -65.9667 142° Southeast 450 518 16,300 -1,041 Descending San Juan Center
Thu 12:41:52 19.1167 -65.8667 131° Southeast 430 495 15,300 -1,000 Descending San Juan Center
Thu 12:42:52 19.0333 -65.7667 131° Southeast 430 495 14,300 -992 Descending San Juan Center
Thu 12:43:53 18.9667 -65.6833 130° Southeast 420 483 13,300 -992 Descending San Juan Center
Thu 12:44:53 18.8833 -65.5833 131° Southeast 410 472 12,300 -1,000 Descending San Juan Center
Thu 12:45:53 18.8000 -65.5000 137° Southeast 390 449 11,300 -1,636 Descending San Juan Center
Thu 12:46:54 18.7167 -65.4333 143° Southeast 390 449 9,000 -1,140 Descending San Juan Center
Thu 12:47:54 18.6333 -65.3833 150° Southeast 330 380 9,000  Level San Juan Center
Thu 12:48:54 18.5667 -65.3333 145° Southeast 290 334 9,000 -298 Level San Juan Center
Thu 12:49:55 18.5000 -65.2833 145° Southeast 280 322 8,400 -530 Descending San Juan Center
Thu 12:51:55 18.3667 -65.2000 149° Southeast 250 288 7,400 -500 Descending San Juan Center

Login

Don't have an account? Register now (free) for customized features, flight alerts, and more!